createdAt,value
2022-12-16T00:04:17.562Z,19.77
2022-12-16T00:09:19.112Z,18.37
2022-12-16T00:14:20.688Z,19.13
2022-12-16T00:19:22.224Z,17.87
2022-12-16T00:24:23.886Z,18.13
2022-12-16T00:29:25.517Z,17.07
2022-12-16T00:34:27.275Z,15.83
2022-12-16T00:39:28.976Z,17.13
2022-12-16T00:44:30.735Z,16.17
2022-12-16T00:49:35.322Z,17.60
2022-12-16T00:54:36.832Z,21.43
2022-12-16T00:59:38.371Z,16.87
2022-12-16T01:04:40.092Z,15.97
2022-12-16T01:09:42.485Z,16.17
2022-12-16T01:14:44.191Z,16.33
2022-12-16T01:19:45.901Z,16.43
2022-12-16T01:24:47.848Z,17.53
2022-12-16T01:29:50.273Z,14.70
2022-12-16T01:34:55.058Z,16.63
2022-12-16T01:39:57.206Z,16.43
2022-12-16T01:45:24.647Z,16.23
2022-12-16T01:50:26.929Z,15.97
2022-12-16T01:55:32.715Z,14.50
2022-12-16T02:00:35.376Z,14.97
2022-12-16T02:05:40.230Z,17.83
2022-12-16T02:10:44.863Z,20.80
2022-12-16T02:16:06.753Z,18.57
2022-12-16T02:21:22.361Z,18.87
2022-12-16T02:26:39.255Z,16.67
2022-12-16T02:31:40.751Z,16.20
2022-12-16T02:36:46.499Z,18.77
2022-12-16T02:42:00.495Z,16.97
2022-12-16T02:47:02.786Z,18.23
2022-12-16T02:52:04.356Z,18.13
2022-12-16T02:57:22.824Z,16.43
2022-12-16T03:02:28.783Z,18.27
2022-12-16T03:07:33.095Z,18.03
2022-12-16T03:12:38.196Z,16.53
2022-12-16T03:17:40.056Z,16.70
2022-12-16T03:22:43.330Z,16.53
2022-12-16T03:28:04.393Z,16.37
2022-12-16T03:33:16.035Z,16.37
2022-12-16T03:38:18.367Z,17.80
2022-12-16T03:43:20.027Z,14.70
2022-12-16T03:48:25.215Z,15.10
2022-12-16T03:53:27.405Z,16.30
2022-12-16T03:58:28.943Z,17.67
2022-12-16T04:03:30.908Z,16.90
2022-12-16T04:08:32.730Z,17.83
2022-12-16T04:13:53.063Z,16.03
2022-12-16T04:19:13.285Z,17.43
2022-12-16T04:24:20.826Z,15.97
2022-12-16T04:29:22.378Z,16.57
2022-12-16T04:34:27.200Z,15.83
2022-12-16T04:39:47.246Z,15.40
2022-12-16T04:45:07.322Z,15.43
2022-12-16T04:50:28.994Z,16.90
2022-12-16T04:55:48.974Z,15.30
2022-12-16T05:01:09.643Z,16.77
2022-12-16T05:06:31.337Z,16.13
2022-12-16T05:11:51.653Z,16.63
2022-12-16T05:17:11.942Z,15.77
2022-12-16T05:22:32.185Z,15.43
2022-12-16T05:27:52.231Z,15.77
2022-12-16T05:33:12.605Z,16.50
2022-12-16T05:38:32.792Z,14.97
2022-12-16T05:43:53.007Z,16.13
2022-12-16T05:49:15.083Z,16.60
2022-12-16T05:54:35.341Z,16.03
2022-12-16T05:59:55.310Z,16.53
2022-12-16T06:05:15.433Z,15.80
2022-12-16T06:10:35.667Z,18.35
2022-12-16T06:15:56.783Z,13.80
2022-12-16T06:21:17.048Z,16.23
2022-12-16T06:26:37.332Z,16.03
2022-12-16T06:31:57.504Z,16.93
2022-12-16T06:37:18.010Z,16.53
2022-12-16T06:42:38.357Z,15.67
2022-12-16T06:47:59.287Z,16.97
2022-12-16T06:53:19.428Z,16.97
2022-12-16T06:58:39.684Z,16.70
2022-12-16T07:03:59.893Z,17.13
2022-12-16T07:09:20.226Z,16.57
2022-12-16T07:14:40.196Z,16.90
2022-12-16T07:20:00.565Z,16.60
2022-12-16T07:25:20.726Z,17.10
2022-12-16T07:30:40.783Z,17.30
2022-12-16T07:36:01.935Z,18.17
2022-12-16T07:41:22.012Z,15.73
2022-12-16T07:46:42.144Z,15.87
2022-12-16T07:52:02.567Z,17.33
2022-12-16T07:57:22.813Z,16.30
2022-12-16T08:02:43.403Z,16.30
2022-12-16T08:08:03.737Z,18.77
2022-12-16T08:13:26.079Z,17.90
2022-12-16T08:19:10.974Z,16.57
2022-12-16T08:24:32.040Z,17.93
2022-12-16T08:29:52.089Z,18.03
2022-12-16T08:35:12.204Z,19.23
2022-12-16T08:40:35.730Z,17.60
2022-12-16T08:46:00.917Z,19.23
2022-12-16T08:51:22.752Z,18.13
2022-12-16T08:56:42.942Z,19.27
2022-12-16T09:02:03.299Z,15.47
2022-12-16T09:07:23.507Z,15.67
2022-12-16T09:12:43.849Z,16.20
2022-12-16T09:18:03.908Z,17.40
2022-12-16T09:23:24.193Z,13.63
2022-12-16T09:28:44.442Z,14.73
2022-12-16T09:34:04.792Z,14.43
2022-12-16T09:39:25.168Z,15.60
2022-12-16T09:45:12.064Z,14.30
2022-12-16T09:50:42.049Z,14.37
2022-12-16T09:56:03.402Z,13.73
2022-12-16T10:01:24.261Z,14.80
2022-12-16T10:07:01.136Z,15.33
2022-12-16T10:12:40.216Z,15.37
2022-12-16T10:18:04.217Z,15.33
2022-12-16T10:23:30.817Z,15.20
2022-12-16T10:29:05.078Z,15.90
2022-12-16T10:34:38.571Z,13.70
2022-12-16T10:40:03.504Z,14.33
2022-12-16T10:45:26.246Z,15.87
2022-12-16T10:50:46.300Z,15.10
2022-12-16T10:56:41.077Z,14.63
2022-12-16T11:02:01.443Z,15.20
2022-12-16T11:07:21.578Z,15.20
2022-12-16T11:12:47.945Z,15.33
2022-12-16T11:18:21.957Z,14.07
2022-12-16T11:23:43.686Z,16.37
2022-12-16T11:29:03.977Z,14.10
2022-12-16T11:34:24.388Z,14.43
2022-12-16T11:39:46.250Z,14.37
2022-12-16T11:45:12.278Z,14.50
2022-12-16T11:50:35.303Z,15.10
2022-12-16T11:56:11.282Z,13.60
2022-12-16T12:01:43.200Z,13.77
2022-12-16T12:07:35.236Z,14.20
2022-12-16T12:13:03.130Z,14.97
2022-12-16T12:18:42.316Z,14.27
2022-12-16T12:24:21.515Z,14.23
2022-12-16T12:29:50.130Z,15.43
2022-12-16T12:35:21.700Z,13.50
2022-12-16T12:41:07.782Z,15.07
2022-12-16T12:46:52.278Z,14.37
2022-12-16T12:52:37.327Z,13.97
2022-12-16T12:57:59.824Z,15.07
2022-12-16T13:03:49.661Z,14.60
2022-12-16T13:09:09.635Z,15.97
2022-12-16T13:15:11.697Z,16.33
2022-12-16T13:20:50.455Z,17.77
2022-12-16T13:26:11.649Z,15.43
2022-12-16T13:31:32.628Z,17.27
2022-12-16T13:36:53.805Z,17.07
2022-12-16T13:42:18.788Z,17.53
2022-12-16T13:47:59.648Z,17.43
2022-12-16T13:53:22.441Z,17.83
2022-12-16T13:58:59.558Z,17.53
2022-12-16T14:04:20.710Z,17.17
2022-12-16T14:09:49.988Z,17.07
2022-12-16T14:15:16.678Z,17.23
2022-12-16T14:20:47.975Z,17.33
2022-12-16T14:26:15.039Z,17.37
2022-12-16T14:31:52.209Z,19.27
2022-12-16T14:37:13.197Z,18.67
2022-12-16T14:42:42.731Z,18.13
2022-12-16T14:48:02.941Z,19.30
2022-12-16T14:53:34.392Z,18.57
2022-12-16T14:58:54.745Z,18.60
2022-12-16T15:04:16.137Z,18.57
2022-12-16T15:10:03.238Z,18.47
2022-12-16T15:15:28.424Z,20.00
2022-12-16T15:20:50.204Z,20.20
2022-12-16T15:26:14.403Z,19.93
2022-12-16T15:31:45.630Z,20.37
2022-12-16T15:37:05.820Z,18.87
2022-12-16T15:42:39.035Z,19.73
2022-12-16T15:47:59.339Z,20.97
2022-12-16T15:54:11.290Z,19.93
2022-12-16T15:59:45.950Z,21.47
2022-12-16T16:05:05.971Z,20.07
2022-12-16T16:10:37.528Z,20.53
2022-12-16T16:15:57.795Z,23.90
2022-12-16T16:21:18.194Z,23.13
2022-12-16T16:26:40.484Z,21.57
2022-12-16T16:32:04.184Z,20.93
2022-12-16T16:37:33.087Z,20.27
2022-12-16T16:42:54.550Z,18.67
2022-12-16T16:48:33.164Z,18.83
2022-12-16T16:53:53.389Z,18.90
2022-12-16T16:59:14.964Z,17.27
2022-12-16T17:04:34.973Z,18.17
2022-12-16T17:09:55.020Z,17.67
2022-12-16T17:15:28.389Z,17.87
2022-12-16T17:20:48.491Z,16.27
2022-12-16T17:26:08.997Z,18.27
2022-12-16T17:31:29.349Z,20.47
2022-12-16T17:36:49.650Z,20.07
2022-12-16T17:42:10.462Z,17.43
2022-12-16T17:47:30.653Z,18.57
2022-12-16T17:52:51.343Z,18.03
2022-12-16T17:58:11.551Z,16.37
2022-12-16T18:03:32.668Z,17.40
2022-12-16T18:08:53.219Z,15.33
2022-12-16T18:14:13.321Z,17.07
2022-12-16T18:19:34.529Z,17.63
2022-12-16T18:24:55.430Z,16.87
2022-12-16T18:30:16.018Z,16.30
2022-12-16T18:35:36.152Z,16.20
2022-12-16T18:40:56.419Z,15.67
2022-12-16T18:46:16.894Z,19.13
2022-12-16T18:51:37.278Z,15.57
2022-12-16T18:56:57.487Z,14.57
2022-12-16T19:02:18.003Z,17.57
2022-12-16T19:07:38.380Z,17.57
2022-12-16T19:12:58.677Z,14.77
2022-12-16T19:18:18.887Z,16.70
2022-12-16T19:23:39.215Z,17.27
2022-12-16T19:28:59.594Z,14.90
2022-12-16T19:34:19.865Z,16.30
2022-12-16T19:39:39.995Z,15.13
2022-12-16T19:45:00.166Z,16.00
2022-12-16T19:50:20.722Z,21.23
2022-12-16T19:55:40.806Z,22.23
2022-12-16T20:01:01.683Z,25.20
2022-12-16T20:06:24.109Z,24.50
2022-12-16T20:11:44.418Z,25.73
2022-12-16T20:17:04.636Z,26.03
2022-12-16T20:22:25.127Z,20.63
2022-12-16T20:27:45.544Z,23.23
2022-12-16T20:33:06.851Z,18.90
2022-12-16T20:38:27.150Z,22.00
2022-12-16T20:43:47.555Z,22.20
2022-12-16T20:49:18.391Z,20.60
2022-12-16T20:54:39.250Z,20.50
2022-12-16T20:59:59.633Z,19.73
2022-12-16T21:05:20.387Z,16.77
2022-12-16T21:10:40.788Z,18.40
2022-12-16T21:21:46.112Z,19.70
2022-12-16T21:27:06.403Z,17.87
2022-12-16T21:32:26.825Z,17.10
2022-12-16T21:37:47.078Z,19.03
2022-12-16T21:43:07.505Z,19.60
2022-12-16T21:48:29.645Z,17.43
2022-12-16T21:53:50.049Z,17.47
2022-12-16T21:59:10.213Z,15.63
2022-12-16T22:04:30.565Z,17.13
2022-12-16T22:09:51.178Z,16.20
2022-12-16T22:15:11.949Z,14.80
2022-12-16T22:20:32.272Z,17.53
2022-12-16T22:25:52.692Z,17.03
2022-12-16T22:31:16.108Z,16.23
2022-12-16T22:36:56.524Z,15.37
2022-12-16T22:42:16.881Z,16.30
2022-12-16T22:47:36.961Z,17.07
2022-12-16T22:52:57.186Z,16.83
2022-12-16T22:58:17.116Z,15.43
2022-12-16T23:03:38.151Z,17.90
2022-12-16T23:08:58.560Z,16.00
2022-12-16T23:14:18.842Z,18.07
2022-12-16T23:19:39.089Z,17.97
2022-12-16T23:24:59.305Z,15.13
2022-12-16T23:30:19.102Z,15.60
2022-12-16T23:35:39.561Z,16.57
2022-12-16T23:40:59.431Z,16.33
2022-12-16T23:46:21.510Z,17.33
2022-12-16T23:51:41.678Z,15.57
2022-12-16T23:57:01.998Z,16.73
